createdAt,value
2023-05-14T00:00:01.975Z,76.50
2023-05-14T00:02:47.716Z,76.10
2023-05-14T00:05:33.393Z,76.10
2023-05-14T00:08:18.990Z,77.20
2023-05-14T00:11:04.362Z,77.40
2023-05-14T00:13:50.682Z,79.20
2023-05-14T00:16:36.173Z,80.20
2023-05-14T00:19:21.866Z,81.30
2023-05-14T00:22:10.019Z,80.80
2023-05-14T00:24:55.427Z,82.60
2023-05-14T00:27:40.806Z,83.50
2023-05-14T00:30:26.271Z,84.70
2023-05-14T00:33:11.421Z,85.90
2023-05-14T00:35:57.090Z,85.80
2023-05-14T00:38:42.553Z,86.20
2023-05-14T00:41:28.197Z,86.30
2023-05-14T00:44:13.814Z,86.70
2023-05-14T00:47:00.300Z,86.40
2023-05-14T00:49:46.440Z,85.40
2023-05-14T00:52:32.237Z,85.70
2023-05-14T00:55:18.426Z,85.50
2023-05-14T00:58:09.345Z,85.00
2023-05-14T01:00:54.967Z,84.80
2023-05-14T01:03:40.917Z,84.50
2023-05-14T01:06:32.575Z,83.70
2023-05-14T01:09:35.039Z,82.80
2023-05-14T01:13:06.730Z,82.70
2023-05-14T01:15:57.786Z,82.90
2023-05-14T01:18:45.356Z,83.40
2023-05-14T01:21:40.417Z,83.00
2023-05-14T01:24:25.764Z,82.70
2023-05-14T01:27:27.998Z,83.00
2023-05-14T01:30:22.128Z,83.20
2023-05-14T01:33:11.484Z,83.30
2023-05-14T01:35:58.569Z,83.50
2023-05-14T01:38:46.505Z,84.40
2023-05-14T01:41:32.885Z,84.60
2023-05-14T01:44:19.103Z,84.60
2023-05-14T01:47:04.809Z,84.60
2023-05-14T01:49:50.476Z,84.50
2023-05-14T01:52:35.902Z,84.60
2023-05-14T01:55:21.311Z,84.60
2023-05-14T01:58:06.852Z,85.90
2023-05-14T02:00:52.258Z,87.00
2023-05-14T02:03:37.976Z,87.20
2023-05-14T02:06:23.568Z,87.30
2023-05-14T02:09:08.939Z,87.10
2023-05-14T02:11:54.467Z,87.70
2023-05-14T02:14:39.863Z,88.00
2023-05-14T02:17:26.646Z,87.50
2023-05-14T02:20:12.990Z,87.00
2023-05-14T02:22:58.242Z,87.30
2023-05-14T02:25:44.556Z,87.30
2023-05-14T02:28:29.807Z,87.30
2023-05-14T02:31:15.479Z,87.40
2023-05-14T02:34:06.671Z,87.30
2023-05-14T02:36:51.911Z,87.60
2023-05-14T02:39:37.586Z,87.00
2023-05-14T02:42:23.062Z,86.10
2023-05-14T02:45:09.038Z,84.60
2023-05-14T02:47:54.876Z,83.30
2023-05-14T02:50:40.451Z,82.70
2023-05-14T02:53:26.255Z,82.20
2023-05-14T02:56:11.764Z,81.40
2023-05-14T02:58:57.399Z,80.60
2023-05-14T03:01:43.587Z,80.00
2023-05-14T03:04:29.322Z,79.30
2023-05-14T03:07:14.687Z,78.40
2023-05-14T03:10:00.663Z,78.30
2023-05-14T03:12:46.250Z,77.60
2023-05-14T03:15:31.666Z,77.20
2023-05-14T03:18:17.385Z,78.80
2023-05-14T03:21:03.968Z,79.80
2023-05-14T03:23:49.314Z,80.10
2023-05-14T03:26:34.624Z,80.50
2023-05-14T03:29:20.127Z,80.60
2023-05-14T03:32:06.162Z,81.00
2023-05-14T03:34:51.594Z,82.00
2023-05-14T03:37:37.085Z,81.60
2023-05-14T03:40:22.661Z,81.00
2023-05-14T03:43:08.319Z,80.50
2023-05-14T03:45:53.486Z,80.00
2023-05-14T03:48:39.334Z,79.60
2023-05-14T03:51:24.670Z,79.40
2023-05-14T03:54:10.532Z,79.20
2023-05-14T03:56:56.082Z,78.60
2023-05-14T03:59:41.696Z,78.40
2023-05-14T04:02:27.371Z,78.80
2023-05-14T04:05:12.933Z,78.90
2023-05-14T04:07:58.398Z,77.90
2023-05-14T04:10:43.946Z,77.90
2023-05-14T04:13:29.545Z,77.60
2023-05-14T04:16:14.879Z,77.40
2023-05-14T04:19:02.598Z,76.70
2023-05-14T04:21:48.260Z,76.50
2023-05-14T04:24:33.731Z,76.60
2023-05-14T04:27:22.277Z,76.50
2023-05-14T04:30:08.578Z,76.50
2023-05-14T04:32:54.348Z,76.60
2023-05-14T04:35:39.576Z,76.50
2023-05-14T04:38:25.125Z,76.50
2023-05-14T04:41:10.662Z,76.30
2023-05-14T04:43:56.868Z,76.40
2023-05-14T04:46:42.284Z,75.90
2023-05-14T04:49:27.649Z,76.60
2023-05-14T04:52:13.042Z,76.60
2023-05-14T04:54:58.367Z,77.10
2023-05-14T04:57:43.750Z,76.30
2023-05-14T05:00:29.537Z,75.50
2023-05-14T05:03:15.341Z,76.20
2023-05-14T05:06:00.861Z,75.20
2023-05-14T05:08:48.765Z,74.90
2023-05-14T05:11:34.496Z,74.40
2023-05-14T05:14:19.946Z,74.70
2023-05-14T05:17:05.562Z,74.00
2023-05-14T05:19:51.174Z,73.80
2023-05-14T05:22:36.816Z,73.90
2023-05-14T05:25:22.171Z,73.50
2023-05-14T05:28:07.718Z,72.30
2023-05-14T05:30:53.357Z,73.00
2023-05-14T05:33:39.100Z,72.50
2023-05-14T05:36:24.589Z,73.70
2023-05-14T05:39:10.448Z,72.70
2023-05-14T05:41:55.774Z,72.30
2023-05-14T05:44:41.429Z,72.30
2023-05-14T05:47:26.832Z,71.40
2023-05-14T05:50:12.450Z,71.50
2023-05-14T05:52:59.243Z,69.80
2023-05-14T05:55:44.913Z,70.00
2023-05-14T05:58:30.451Z,71.60
2023-05-14T06:01:15.755Z,71.80
2023-05-14T06:04:01.155Z,72.80
2023-05-14T06:06:46.602Z,73.00
2023-05-14T06:09:32.261Z,70.90
2023-05-14T06:12:17.904Z,69.90
2023-05-14T06:15:03.701Z,69.20
2023-05-14T06:17:49.330Z,71.60
2023-05-14T06:20:35.049Z,70.10
2023-05-14T06:23:20.823Z,68.00
2023-05-14T06:26:06.095Z,69.20
2023-05-14T06:28:51.720Z,67.40
2023-05-14T06:31:37.618Z,66.80
2023-05-14T06:34:23.322Z,66.80
2023-05-14T06:37:09.681Z,65.70
2023-05-14T06:39:57.657Z,68.00
2023-05-14T06:42:43.503Z,65.60
2023-05-14T06:45:30.750Z,67.10
2023-05-14T06:48:21.426Z,67.10
2023-05-14T06:51:07.145Z,67.10
2023-05-14T06:53:53.875Z,66.80
2023-05-14T06:56:39.603Z,67.90
2023-05-14T06:59:24.973Z,67.50
2023-05-14T07:02:10.663Z,66.10
2023-05-14T07:04:56.193Z,64.30
2023-05-14T07:07:41.789Z,62.90
2023-05-14T07:10:27.481Z,64.80
2023-05-14T07:13:12.680Z,66.50
2023-05-14T07:15:58.284Z,66.00
2023-05-14T07:18:45.493Z,66.70
2023-05-14T07:21:31.806Z,65.90
2023-05-14T07:24:17.277Z,64.80
2023-05-14T07:27:02.942Z,61.50
2023-05-14T07:29:49.756Z,59.00
2023-05-14T07:32:35.244Z,57.60
2023-05-14T07:35:20.815Z,57.60
2023-05-14T07:38:08.870Z,57.80
2023-05-14T07:40:54.468Z,58.30
2023-05-14T07:43:40.625Z,57.20
2023-05-14T07:46:26.714Z,59.40
2023-05-14T07:49:12.541Z,60.00
2023-05-14T07:51:57.946Z,58.80
2023-05-14T07:54:43.365Z,57.90
2023-05-14T07:57:28.851Z,58.10
2023-05-14T08:00:15.999Z,57.80
2023-05-14T08:03:01.774Z,57.90
2023-05-14T08:05:47.187Z,57.30
2023-05-14T08:08:32.680Z,58.70
2023-05-14T08:11:18.597Z,57.70
2023-05-14T08:14:04.346Z,56.70
2023-05-14T08:16:50.191Z,56.10
2023-05-14T08:19:35.895Z,54.60
2023-05-14T08:22:21.852Z,55.20
2023-05-14T08:25:07.949Z,54.00
2023-05-14T08:27:54.366Z,54.20
2023-05-14T08:30:39.950Z,54.80
2023-05-14T08:33:25.294Z,54.30
2023-05-14T08:36:10.723Z,52.70
2023-05-14T08:38:56.032Z,52.00
2023-05-14T08:41:41.861Z,52.30
2023-05-14T08:44:41.719Z,50.50
2023-05-14T08:47:28.676Z,51.40
2023-05-14T08:50:14.236Z,51.10
2023-05-14T08:52:59.711Z,51.20
2023-05-14T08:55:46.066Z,50.50
2023-05-14T08:58:31.743Z,49.90
2023-05-14T09:01:18.908Z,49.40
2023-05-14T09:04:08.567Z,48.30
2023-05-14T09:06:55.071Z,47.00
2023-05-14T09:09:41.482Z,45.70
2023-05-14T09:12:27.306Z,46.40
2023-05-14T09:15:12.738Z,45.50
2023-05-14T09:17:58.464Z,45.20
2023-05-14T09:20:44.286Z,43.20
2023-05-14T09:23:33.815Z,43.30
2023-05-14T09:26:19.210Z,41.70
2023-05-14T09:29:05.119Z,41.70
2023-05-14T09:31:52.056Z,39.70
2023-05-14T09:34:40.055Z,39.70
2023-05-14T09:37:26.146Z,39.50
2023-05-14T09:40:12.528Z,39.00
2023-05-14T09:42:58.338Z,41.10
2023-05-14T09:45:44.176Z,37.50
2023-05-14T09:48:29.625Z,37.60
2023-05-14T09:51:15.066Z,37.50
2023-05-14T09:54:01.094Z,38.70
2023-05-14T09:56:46.504Z,37.80
2023-05-14T09:59:31.816Z,35.40
2023-05-14T10:02:33.948Z,36.50
2023-05-14T10:05:21.445Z,38.10
2023-05-14T10:08:28.994Z,39.70
2023-05-14T10:11:22.476Z,40.30
2023-05-14T10:14:20.874Z,39.50
2023-05-14T10:17:06.913Z,39.80
2023-05-14T10:19:54.788Z,40.80
2023-05-14T10:22:40.625Z,41.40
2023-05-14T10:25:26.774Z,39.70
2023-05-14T10:28:12.170Z,38.60
2023-05-14T10:30:59.418Z,39.30
2023-05-14T10:33:51.596Z,41.10
2023-05-14T10:36:37.090Z,41.60
2023-05-14T10:39:22.650Z,38.70
2023-05-14T10:42:15.325Z,38.70
2023-05-14T10:45:07.400Z,40.00
2023-05-14T10:47:53.691Z,40.00
2023-05-14T10:50:39.233Z,38.70
2023-05-14T10:53:35.926Z,38.00
2023-05-14T10:56:22.053Z,36.90
2023-05-14T10:59:07.777Z,37.70
2023-05-14T11:01:53.475Z,36.10
2023-05-14T11:04:41.753Z,37.50
2023-05-14T11:07:32.719Z,36.90
2023-05-14T11:10:20.232Z,33.40
2023-05-14T11:13:06.857Z,34.70
2023-05-14T11:15:53.101Z,35.20
2023-05-14T11:18:38.934Z,34.50
2023-05-14T11:21:25.443Z,34.20
2023-05-14T11:24:11.355Z,32.30
2023-05-14T11:26:57.156Z,32.80
2023-05-14T11:29:46.835Z,33.40
2023-05-14T11:32:33.194Z,31.80
2023-05-14T11:35:18.844Z,33.60
2023-05-14T11:38:04.386Z,33.10
2023-05-14T11:40:57.529Z,31.80
2023-05-14T11:43:43.251Z,34.40
2023-05-14T11:46:30.991Z,33.20
2023-05-14T11:49:16.651Z,31.50
2023-05-14T11:52:06.299Z,31.10
2023-05-14T11:54:51.950Z,32.20
2023-05-14T11:57:37.631Z,31.20
2023-05-14T12:00:24.748Z,30.60
2023-05-14T12:03:10.668Z,31.80
2023-05-14T12:06:01.806Z,32.60
2023-05-14T12:08:50.486Z,30.90
2023-05-14T12:11:36.941Z,31.10
2023-05-14T12:14:24.352Z,30.80
2023-05-14T12:17:23.265Z,33.00
2023-05-14T12:20:11.136Z,31.80
2023-05-14T12:22:59.378Z,31.50
2023-05-14T12:25:53.844Z,31.70
2023-05-14T12:28:43.651Z,33.20
2023-05-14T12:31:34.010Z,31.70
2023-05-14T12:34:19.494Z,32.60
2023-05-14T12:37:06.503Z,33.10
2023-05-14T12:39:52.211Z,33.60
2023-05-14T12:42:39.806Z,34.20
2023-05-14T12:45:25.694Z,33.80
2023-05-14T12:48:13.206Z,32.60
2023-05-14T12:50:58.604Z,30.70
2023-05-14T12:53:44.015Z,32.50
2023-05-14T12:56:31.615Z,31.10
2023-05-14T12:59:16.938Z,29.30
2023-05-14T13:02:03.477Z,28.60
2023-05-14T13:04:48.955Z,31.00
2023-05-14T13:07:35.253Z,27.60
2023-05-14T13:10:20.666Z,28.40
2023-05-14T13:13:06.369Z,26.30
2023-05-14T13:15:52.772Z,26.40
2023-05-14T13:18:38.253Z,26.30
2023-05-14T13:21:23.752Z,24.60
2023-05-14T13:24:11.951Z,24.30
2023-05-14T13:26:57.836Z,26.00
2023-05-14T13:29:43.171Z,27.30
2023-05-14T13:32:28.731Z,25.00
2023-05-14T13:35:15.705Z,25.30
2023-05-14T13:38:01.554Z,28.00
2023-05-14T13:40:47.018Z,27.80
2023-05-14T13:43:34.065Z,27.30
2023-05-14T13:46:19.429Z,27.00
2023-05-14T13:49:05.355Z,27.30
2023-05-14T13:51:50.680Z,27.00
2023-05-14T13:54:36.224Z,24.10
2023-05-14T13:57:22.153Z,21.40
2023-05-14T14:00:08.957Z,18.40
2023-05-14T14:02:57.705Z,21.10
2023-05-14T14:05:43.044Z,25.60
2023-05-14T14:08:28.646Z,24.80
2023-05-14T14:11:14.042Z,26.00
2023-05-14T14:13:59.411Z,25.80
2023-05-14T14:16:45.322Z,25.70
2023-05-14T14:19:31.213Z,25.50
2023-05-14T14:22:17.734Z,21.40
2023-05-14T14:25:03.996Z,23.80
2023-05-14T14:27:49.575Z,19.50
2023-05-14T14:30:35.074Z,16.30
2023-05-14T14:33:20.394Z,19.20
2023-05-14T14:36:06.417Z,21.30
2023-05-14T14:38:51.977Z,20.80
2023-05-14T14:41:39.418Z,22.40
2023-05-14T14:44:25.025Z,22.10
2023-05-14T14:47:10.374Z,21.20
2023-05-14T14:49:56.140Z,24.70
2023-05-14T14:52:46.001Z,22.10
2023-05-14T14:55:31.704Z,21.50
2023-05-14T14:58:19.519Z,24.20
2023-05-14T15:01:05.447Z,27.50
2023-05-14T15:03:50.970Z,28.80
2023-05-14T15:06:36.689Z,31.10
2023-05-14T15:09:22.308Z,31.20
2023-05-14T15:12:09.062Z,31.70
2023-05-14T15:14:54.394Z,32.10
2023-05-14T15:17:40.091Z,33.20
2023-05-14T15:20:25.602Z,32.30
2023-05-14T15:23:11.827Z,31.90
2023-05-14T15:25:57.440Z,31.40
2023-05-14T15:28:43.694Z,32.80
2023-05-14T15:31:29.451Z,32.70
2023-05-14T15:34:14.776Z,30.50
2023-05-14T15:36:59.939Z,32.10
2023-05-14T15:39:45.606Z,31.30
2023-05-14T15:42:30.957Z,31.60
2023-05-14T15:45:18.922Z,31.50
2023-05-14T15:48:04.580Z,31.00
2023-05-14T15:50:50.224Z,30.70
2023-05-14T15:53:35.453Z,30.80
2023-05-14T15:56:22.369Z,31.30
2023-05-14T15:59:07.637Z,32.20
2023-05-14T16:01:53.028Z,33.30
2023-05-14T16:04:38.593Z,34.70
2023-05-14T16:07:24.091Z,35.30
2023-05-14T16:10:09.846Z,35.80
2023-05-14T16:12:55.421Z,36.50
2023-05-14T16:15:40.886Z,37.40
2023-05-14T16:18:26.468Z,38.20
2023-05-14T16:21:12.498Z,39.40
2023-05-14T16:23:58.188Z,42.00
2023-05-14T16:26:43.930Z,44.90
2023-05-14T16:29:29.597Z,47.60
2023-05-14T16:32:15.233Z,50.60
2023-05-14T16:35:02.800Z,50.30
2023-05-14T16:37:48.376Z,52.00
2023-05-14T16:40:33.584Z,53.10
2023-05-14T16:43:19.216Z,53.90
2023-05-14T16:46:06.044Z,57.50
2023-05-14T16:48:51.618Z,57.70
2023-05-14T16:51:42.491Z,60.20
2023-05-14T16:54:28.302Z,60.60
2023-05-14T16:57:13.806Z,62.50
2023-05-14T16:59:59.436Z,67.30
2023-05-14T17:02:49.043Z,68.40
2023-05-14T17:05:35.407Z,70.20
2023-05-14T17:08:21.107Z,71.70
2023-05-14T17:11:09.911Z,72.10
2023-05-14T17:13:55.264Z,73.70
2023-05-14T17:16:42.359Z,71.70
2023-05-14T17:19:27.834Z,73.30
2023-05-14T17:22:13.993Z,72.10
2023-05-14T17:24:59.803Z,70.30
2023-05-14T17:27:45.055Z,69.10
2023-05-14T17:30:30.625Z,70.20
2023-05-14T17:33:16.288Z,67.90
2023-05-14T17:36:01.832Z,67.80
2023-05-14T17:38:47.930Z,65.90
2023-05-14T17:41:33.408Z,65.60
2023-05-14T17:44:18.954Z,63.60
2023-05-14T17:47:05.291Z,65.10
2023-05-14T17:49:53.487Z,64.60
2023-05-14T17:52:39.099Z,63.70
2023-05-14T17:55:24.691Z,64.60
2023-05-14T17:58:16.046Z,64.90
2023-05-14T18:01:01.921Z,64.20
2023-05-14T18:03:47.549Z,63.90
2023-05-14T18:06:32.947Z,64.20
2023-05-14T18:09:18.589Z,64.90
2023-05-14T18:12:04.387Z,65.00
2023-05-14T18:14:49.609Z,64.60
2023-05-14T18:17:34.996Z,65.40
2023-05-14T18:20:20.721Z,65.40
2023-05-14T18:23:06.412Z,65.70
2023-05-14T18:25:52.652Z,66.10
2023-05-14T18:28:38.092Z,65.40
2023-05-14T18:31:23.366Z,66.20
2023-05-14T18:34:09.010Z,66.00
2023-05-14T18:36:54.455Z,65.00
2023-05-14T18:39:40.508Z,65.20
2023-05-14T18:42:26.123Z,66.40
2023-05-14T18:45:12.000Z,65.80
2023-05-14T18:47:57.761Z,66.00
2023-05-14T18:50:43.444Z,67.60
2023-05-14T18:53:29.486Z,67.60
2023-05-14T18:56:15.197Z,67.80
2023-05-14T18:59:01.131Z,68.50
2023-05-14T19:01:46.907Z,68.50
2023-05-14T19:04:33.421Z,68.30
2023-05-14T19:07:19.472Z,68.70
2023-05-14T19:10:05.790Z,68.30
2023-05-14T19:12:51.196Z,68.70
2023-05-14T19:15:39.028Z,68.40
2023-05-14T19:18:24.795Z,67.90
2023-05-14T19:21:10.317Z,68.50
2023-05-14T19:23:55.842Z,68.50
2023-05-14T19:26:41.106Z,69.20
2023-05-14T19:29:26.420Z,68.90
2023-05-14T19:32:12.178Z,70.20
2023-05-14T19:34:57.626Z,71.30
2023-05-14T19:37:43.053Z,72.40
2023-05-14T19:40:28.849Z,72.80
2023-05-14T19:43:14.599Z,72.20
2023-05-14T19:46:01.658Z,72.20
2023-05-14T19:48:48.526Z,71.60
2023-05-14T19:51:34.295Z,71.50
2023-05-14T19:54:19.523Z,71.20
2023-05-14T19:57:05.708Z,71.00
2023-05-14T19:59:50.940Z,71.70
2023-05-14T20:02:36.812Z,72.50
2023-05-14T20:05:22.316Z,72.90
2023-05-14T20:08:08.241Z,73.20
2023-05-14T20:10:54.281Z,72.70
2023-05-14T20:13:39.503Z,73.20
2023-05-14T20:16:25.576Z,73.40
2023-05-14T20:19:12.077Z,72.60
2023-05-14T20:21:57.794Z,73.50
2023-05-14T20:24:44.010Z,73.70
2023-05-14T20:27:29.877Z,73.40
2023-05-14T20:30:15.600Z,73.00
2023-05-14T20:33:04.321Z,74.30
2023-05-14T20:35:49.942Z,75.20
2023-05-14T20:38:35.729Z,74.40
2023-05-14T20:41:22.285Z,72.50
2023-05-14T20:44:08.007Z,73.60
2023-05-14T20:46:53.329Z,73.20
2023-05-14T20:49:39.043Z,73.00
2023-05-14T20:52:24.695Z,72.70
2023-05-14T20:55:10.398Z,74.30
2023-05-14T20:57:55.770Z,76.80
2023-05-14T21:00:41.498Z,78.20
2023-05-14T21:03:27.125Z,78.60
2023-05-14T21:06:12.885Z,79.60
2023-05-14T21:08:58.221Z,79.70
2023-05-14T21:11:44.403Z,79.60
2023-05-14T21:14:29.581Z,79.00
2023-05-14T21:17:15.105Z,79.20
2023-05-14T21:20:00.899Z,78.60
2023-05-14T21:22:46.121Z,77.90
2023-05-14T21:25:31.887Z,77.30
2023-05-14T21:28:17.165Z,76.10
2023-05-14T21:31:02.933Z,76.20
2023-05-14T21:33:48.462Z,76.90
2023-05-14T21:36:34.253Z,76.10
2023-05-14T21:39:20.012Z,77.40
2023-05-14T21:42:05.761Z,77.60
2023-05-14T21:44:51.258Z,77.40
2023-05-14T21:47:37.822Z,77.00
2023-05-14T21:50:23.348Z,76.80
2023-05-14T21:53:09.097Z,76.60
2023-05-14T21:55:55.454Z,78.10
2023-05-14T21:58:41.632Z,79.80
2023-05-14T22:01:26.920Z,80.00
2023-05-14T22:04:12.340Z,80.60
2023-05-14T22:06:57.939Z,79.90
2023-05-14T22:09:43.119Z,80.10
2023-05-14T22:12:28.825Z,79.50
2023-05-14T22:15:14.374Z,79.40
2023-05-14T22:17:59.859Z,79.00
2023-05-14T22:20:45.595Z,79.00
2023-05-14T22:23:30.896Z,78.30
2023-05-14T22:26:16.526Z,79.20
2023-05-14T22:29:01.993Z,79.00
2023-05-14T22:31:47.502Z,78.80
2023-05-14T22:34:33.226Z,79.70
2023-05-14T22:37:18.532Z,80.00
2023-05-14T22:40:05.266Z,80.20
2023-05-14T22:42:50.507Z,80.00
2023-05-14T22:45:36.313Z,80.50
2023-05-14T22:48:21.856Z,82.00
2023-05-14T22:51:07.575Z,83.20
2023-05-14T22:53:52.860Z,83.20
2023-05-14T22:56:38.778Z,84.20
2023-05-14T22:59:24.362Z,85.00
2023-05-14T23:02:10.153Z,86.20
2023-05-14T23:04:55.933Z,86.70
2023-05-14T23:07:41.366Z,86.30
2023-05-14T23:10:26.770Z,85.60
2023-05-14T23:13:12.304Z,85.50
2023-05-14T23:15:57.835Z,85.90
2023-05-14T23:18:43.885Z,86.20
2023-05-14T23:21:29.571Z,85.60
2023-05-14T23:24:15.054Z,85.30
2023-05-14T23:27:00.341Z,85.00
2023-05-14T23:29:46.005Z,85.40
2023-05-14T23:32:31.495Z,85.00
2023-05-14T23:35:16.929Z,84.70
2023-05-14T23:38:03.752Z,84.80
2023-05-14T23:40:49.482Z,84.30
2023-05-14T23:43:35.204Z,83.80
2023-05-14T23:46:21.082Z,84.60
2023-05-14T23:49:06.637Z,85.60
2023-05-14T23:51:52.169Z,85.70
2023-05-14T23:54:38.919Z,85.20
2023-05-14T23:57:24.522Z,86.20
